createdAt,value
2023-05-05T00:00:26.015Z,2.1
2023-05-05T00:01:38.000Z,2.1
2023-05-05T00:02:58.413Z,2.1
2023-05-05T00:04:14.596Z,2.2
2023-05-05T00:05:27.000Z,2.4
2023-05-05T00:06:46.995Z,2.2
2023-05-05T00:07:59.000Z,2.2
2023-05-05T00:09:15.000Z,2.2
2023-05-05T00:10:35.573Z,2.2
2023-05-05T00:11:51.771Z,2.4
2023-05-05T00:13:07.718Z,2.5
2023-05-05T00:14:23.913Z,2.2
2023-05-05T00:15:40.358Z,2.5
2023-05-05T00:16:55.572Z,2.4
2023-05-05T00:18:11.517Z,2.4
2023-05-05T00:19:27.958Z,2.4
2023-05-05T00:20:40.000Z,2.2
2023-05-05T00:21:56.000Z,2.1
2023-05-05T00:23:13.000Z,2.3
2023-05-05T00:24:29.000Z,2.4
2023-05-05T00:25:47.963Z,2.3
2023-05-05T00:26:59.000Z,2.2
2023-05-05T00:28:19.365Z,2.4
2023-05-05T00:29:32.000Z,2.4
2023-05-05T00:30:48.000Z,2.3
2023-05-05T00:32:07.955Z,2.2
2023-05-05T00:33:24.150Z,2.2
2023-05-05T00:34:36.000Z,2.2
2023-05-05T00:35:53.000Z,2.4
2023-05-05T00:37:09.000Z,2
2023-05-05T00:38:28.934Z,2
2023-05-05T00:39:41.000Z,2.2
2023-05-05T00:41:01.080Z,2.2
2023-05-05T00:42:14.000Z,2.5
2023-05-05T00:43:29.000Z,2
2023-05-05T00:44:45.000Z,2.2
2023-05-05T00:46:01.000Z,2.2
2023-05-05T00:47:17.000Z,2.4
2023-05-05T00:48:37.269Z,2.4
2023-05-05T00:49:53.708Z,2.4
2023-05-05T00:51:09.905Z,2.2
2023-05-05T00:52:21.000Z,2.7
2023-05-05T00:53:36.000Z,2.2
2023-05-05T00:54:53.000Z,2.2
2023-05-05T00:56:12.741Z,2.3
2023-05-05T00:57:28.921Z,2.4
2023-05-05T00:58:41.000Z,2.3
2023-05-05T00:59:57.000Z,2.2
2023-05-05T01:01:17.511Z,2.4
2023-05-05T01:02:30.000Z,2.3
2023-05-05T01:03:49.658Z,2.6
2023-05-05T01:05:02.000Z,2.2
2023-05-05T01:06:17.000Z,2.3
2023-05-05T01:07:37.515Z,2.4
2023-05-05T01:08:53.462Z,2.1
2023-05-05T01:10:09.909Z,2.1
2023-05-05T01:11:26.099Z,2.3
2023-05-05T01:12:42.048Z,2.3
2023-05-05T01:13:58.244Z,2.5
2023-05-05T01:15:14.439Z,2.4
2023-05-05T01:16:27.000Z,2.6
2023-05-05T01:17:43.000Z,2.6
2023-05-05T01:18:58.000Z,2
2023-05-05T01:20:13.000Z,2.7
2023-05-05T01:21:29.000Z,2.4
2023-05-05T01:22:44.000Z,2.2
2023-05-05T01:23:59.000Z,2.1
2023-05-05T01:25:14.000Z,2.4
2023-05-05T01:26:34.579Z,2.4
2023-05-05T01:27:47.000Z,2.2
2023-05-05T01:29:06.720Z,2.3
2023-05-05T01:30:19.000Z,2.4
2023-05-05T01:31:35.000Z,2.7
2023-05-05T01:32:52.000Z,2.5
2023-05-05T01:34:08.000Z,2.6
2023-05-05T01:35:24.000Z,2.7
2023-05-05T01:36:40.000Z,2.2
2023-05-05T01:38:00.338Z,2.5
2023-05-05T01:39:16.534Z,2.3
2023-05-05T01:40:29.000Z,2.4
2023-05-05T01:41:47.951Z,2.5
2023-05-05T01:43:00.000Z,2.4
2023-05-05T01:44:10.000Z,2.6
2023-05-05T01:44:20.326Z,2.6
2023-05-05T01:45:36.520Z,2.4
2023-05-05T01:46:49.000Z,2.8
2023-05-05T01:48:05.000Z,2.4
2023-05-05T01:49:25.110Z,2.5
2023-05-05T01:51:55.540Z,2.7
2023-05-05T01:53:07.000Z,2.6
2023-05-05T01:54:22.000Z,2.4
2023-05-05T01:55:38.000Z,2.5
2023-05-05T01:56:58.368Z,2.7
2023-05-05T01:58:14.571Z,2.7
2023-05-05T01:59:30.514Z,2.7
2023-05-05T02:00:43.000Z,2.6
2023-05-05T02:02:03.146Z,2.7
2023-05-05T02:03:15.000Z,3
2023-05-05T02:04:35.544Z,2.8
2023-05-05T02:05:48.000Z,2.5
2023-05-05T02:07:07.936Z,2.5
2023-05-05T02:08:20.000Z,2.6
2023-05-05T02:09:36.000Z,2.5
2023-05-05T02:10:51.000Z,2.7
2023-05-05T02:12:11.735Z,2.7
2023-05-05T02:13:17.000Z,2.7
2023-05-05T02:13:27.931Z,2.9
2023-05-05T02:14:43.878Z,2.7
2023-05-05T02:15:56.000Z,2.8
2023-05-05T02:17:12.000Z,2.5
2023-05-05T02:18:29.000Z,2.7
2023-05-05T02:20:59.000Z,2.6
2023-05-05T02:22:14.000Z,2.8
2023-05-05T02:23:30.000Z,3.1
2023-05-05T02:24:46.000Z,2.7
2023-05-05T02:26:02.000Z,2.9
2023-05-05T02:27:22.172Z,2.6
2023-05-05T02:28:34.000Z,2.9
2023-05-05T02:29:51.000Z,2.7
2023-05-05T02:31:07.000Z,2.7
2023-05-05T02:32:26.948Z,3
2023-05-05T02:33:39.000Z,2.8
2023-05-05T02:34:49.000Z,2.8
2023-05-05T02:34:55.000Z,2.8
2023-05-05T02:36:15.288Z,2.8
2023-05-05T02:37:28.000Z,2.9
2023-05-05T02:38:44.000Z,2.8
2023-05-05T02:40:03.138Z,2.9
2023-05-05T02:42:35.283Z,2.9
2023-05-05T02:43:48.000Z,2.9
2023-05-05T02:45:07.915Z,2.8
2023-05-05T02:46:20.000Z,3.1
2023-05-05T02:47:36.000Z,2.9
2023-05-05T02:48:51.000Z,3
2023-05-05T02:49:59.000Z,2.9
2023-05-05T02:50:10.499Z,2.8
2023-05-05T02:51:22.000Z,2.9
2023-05-05T02:52:40.932Z,3.1
2023-05-05T02:53:48.000Z,3.2
2023-05-05T02:53:53.000Z,2.9
2023-05-05T02:55:10.000Z,3.3
2023-05-05T02:57:42.000Z,2.9
2023-05-05T02:58:58.000Z,3.3
2023-05-05T03:01:30.000Z,3
2023-05-05T03:02:47.000Z,3.3
2023-05-05T03:04:06.938Z,3.2
2023-05-05T03:05:22.889Z,2.9
2023-05-05T03:06:35.000Z,3.2
2023-05-05T03:07:55.530Z,3.4
2023-05-05T03:09:07.000Z,3
2023-05-05T03:10:26.934Z,3
2023-05-05T03:11:42.883Z,3.3
2023-05-05T03:12:48.000Z,3.5
2023-05-05T03:12:59.079Z,3
2023-05-05T03:14:15.512Z,3.1
2023-05-05T03:15:31.726Z,3
2023-05-05T03:16:47.908Z,3.5
2023-05-05T03:17:59.000Z,3.3
2023-05-05T03:20:30.000Z,3.2
2023-05-05T03:21:45.000Z,3.4
2023-05-05T03:23:04.989Z,3.4
2023-05-05T03:24:17.000Z,3.5
2023-05-05T03:25:37.367Z,3.1
2023-05-05T03:26:50.000Z,3.2
2023-05-05T03:28:06.000Z,3.3
2023-05-05T03:29:22.000Z,3.2
2023-05-05T03:30:38.000Z,3.2
2023-05-05T03:31:54.000Z,3.3
2023-05-05T03:33:10.000Z,3.4
2023-05-05T03:34:30.741Z,3.2
2023-05-05T03:35:46.935Z,3.6
2023-05-05T03:36:59.000Z,3.5
2023-05-05T03:38:14.000Z,3.4
2023-05-05T03:39:34.536Z,3.2
2023-05-05T03:40:50.736Z,3.6
2023-05-05T03:42:03.000Z,3.7
2023-05-05T03:43:22.879Z,3.6
2023-05-05T03:44:35.000Z,3.7
2023-05-05T03:45:55.510Z,3.6
2023-05-05T03:47:07.000Z,3.3
2023-05-05T03:48:22.000Z,3.4
2023-05-05T03:49:37.000Z,4.1
2023-05-05T03:50:56.390Z,3.8
2023-05-05T03:52:09.000Z,3.5
2023-05-05T03:53:28.774Z,3.5
2023-05-05T03:54:44.967Z,3.6
2023-05-05T03:56:01.175Z,3.4
2023-05-05T03:57:13.000Z,4.1
2023-05-05T03:58:29.000Z,3.8
2023-05-05T03:59:46.000Z,3.7
2023-05-05T04:01:05.956Z,3.8
2023-05-05T04:02:18.000Z,3.8
2023-05-05T04:03:38.345Z,3.7
2023-05-05T04:04:50.000Z,3.8
2023-05-05T04:06:10.739Z,3.5
2023-05-05T04:07:25.951Z,4
2023-05-05T04:08:42.144Z,3.8
2023-05-05T04:09:54.000Z,3.6
2023-05-05T04:11:14.532Z,3.8
2023-05-05T04:12:27.000Z,3.8
2023-05-05T04:13:46.927Z,3.8
2023-05-05T04:14:59.000Z,3.4
2023-05-05T04:16:18.347Z,4
2023-05-05T04:17:29.000Z,4
2023-05-05T04:18:45.000Z,3.9
2023-05-05T04:20:00.000Z,3.6
2023-05-05T04:21:19.938Z,4.1
2023-05-05T04:22:32.000Z,3.7
2023-05-05T04:23:48.000Z,4
2023-05-05T04:25:05.000Z,3.9
2023-05-05T04:26:21.000Z,3.9
2023-05-05T04:27:31.000Z,3.5
2023-05-05T04:27:37.000Z,4.2
2023-05-05T04:28:57.113Z,4
2023-05-05T04:30:09.000Z,3.5
2023-05-05T04:31:29.753Z,3.8
2023-05-05T04:32:42.000Z,3.8
2023-05-05T04:35:14.000Z,3.8
2023-05-05T04:36:29.000Z,3.5
2023-05-05T04:37:46.000Z,3.8
2023-05-05T04:39:02.000Z,3.7
2023-05-05T04:40:18.000Z,3.7
2023-05-05T04:41:38.088Z,3.7
2023-05-05T04:42:50.000Z,3.8
2023-05-05T04:44:10.480Z,3.7
2023-05-05T04:45:22.000Z,3.6
2023-05-05T04:46:37.000Z,3.9
2023-05-05T04:47:53.000Z,3.7
2023-05-05T04:49:09.000Z,3.3
2023-05-05T04:50:26.000Z,3.3
2023-05-05T04:51:45.954Z,3.9
2023-05-05T04:52:58.000Z,3.7
2023-05-05T04:54:18.338Z,3.7
2023-05-05T04:55:30.000Z,3.7
2023-05-05T04:56:47.000Z,3.2
2023-05-05T04:58:03.000Z,3.5
2023-05-05T04:59:22.872Z,3.7
2023-05-05T05:00:35.000Z,3.7
2023-05-05T05:01:51.000Z,3.4
2023-05-05T05:03:07.000Z,3.7
2023-05-05T05:04:26.917Z,3.4
2023-05-05T05:05:39.000Z,3.7
2023-05-05T05:06:59.063Z,3.6
2023-05-05T05:08:11.000Z,3.8
2023-05-05T05:09:28.000Z,3.9
2023-05-05T05:10:44.000Z,3.4
2023-05-05T05:11:59.000Z,3.5
2023-05-05T05:13:18.084Z,3.8
2023-05-05T05:14:33.558Z,3.5
2023-05-05T05:15:45.000Z,3.7
2023-05-05T05:17:01.000Z,3.5
2023-05-05T05:18:20.909Z,3.5
2023-05-05T05:19:33.000Z,3.8
2023-05-05T05:20:52.570Z,4
2023-05-05T05:21:59.000Z,3.8
2023-05-05T05:22:05.000Z,3.6
2023-05-05T05:23:21.000Z,3.5
2023-05-05T05:24:37.000Z,3.5
2023-05-05T05:25:53.000Z,3.4
2023-05-05T05:27:09.000Z,3.3
2023-05-05T05:29:45.694Z,3.2
2023-05-05T05:30:58.000Z,3.3
2023-05-05T05:32:18.339Z,3.5
2023-05-05T05:33:30.000Z,3.4
2023-05-05T05:34:47.000Z,3.4
2023-05-05T05:36:06.924Z,3.4
2023-05-05T05:37:22.136Z,3.2
2023-05-05T05:38:34.000Z,3.3
2023-05-05T05:39:54.275Z,3.4
2023-05-05T05:41:09.498Z,3.4
2023-05-05T05:42:24.966Z,3.4
2023-05-05T05:43:36.000Z,3.3
2023-05-05T05:44:55.143Z,3
2023-05-05T05:46:07.000Z,3.4
2023-05-05T05:47:22.000Z,3.3
2023-05-05T05:48:38.000Z,3.2
2023-05-05T05:49:58.217Z,3.4
2023-05-05T05:51:10.000Z,3.2
2023-05-05T05:52:27.000Z,2.9
2023-05-05T05:53:43.000Z,3.3
2023-05-05T05:55:03.007Z,3.1
2023-05-05T05:56:15.000Z,3.3
2023-05-05T05:57:31.000Z,2.9
2023-05-05T05:58:47.000Z,3
2023-05-05T06:00:07.537Z,3
2023-05-05T06:01:20.000Z,2.7
2023-05-05T06:02:40.181Z,2.9
2023-05-05T06:03:51.000Z,3.1
2023-05-05T06:05:11.592Z,3.1
2023-05-05T06:06:24.000Z,3.1
2023-05-05T06:07:43.729Z,3
2023-05-05T06:08:56.000Z,2.8
2023-05-05T06:10:12.000Z,3.2
2023-05-05T06:11:28.000Z,2.9
2023-05-05T06:12:44.000Z,3.3
2023-05-05T06:13:59.000Z,3.1
2023-05-05T06:15:14.000Z,2.6
2023-05-05T06:16:33.186Z,2.9
2023-05-05T06:17:46.000Z,2.8
2023-05-05T06:19:02.000Z,3.1
2023-05-05T06:20:22.021Z,2.9
2023-05-05T06:21:34.000Z,2.7
2023-05-05T06:22:50.000Z,2.9
2023-05-05T06:24:06.000Z,3.2
2023-05-05T06:25:26.557Z,3.2
2023-05-05T06:26:42.753Z,3.2
2023-05-05T06:27:55.000Z,3
2023-05-05T06:29:15.144Z,3
2023-05-05T06:30:31.340Z,3.1
2023-05-05T06:31:47.536Z,3.1
2023-05-05T06:33:02.748Z,3.2
2023-05-05T06:34:15.000Z,3
2023-05-05T06:35:35.400Z,2.8
2023-05-05T06:36:47.000Z,3
2023-05-05T06:38:04.000Z,3.1
2023-05-05T06:39:23.979Z,3.1
2023-05-05T06:40:36.000Z,3
2023-05-05T06:41:51.000Z,2.8
2023-05-05T06:43:10.610Z,2.9
2023-05-05T06:44:23.000Z,3.1
2023-05-05T06:45:39.000Z,3.2
2023-05-05T06:46:58.944Z,3.1
2023-05-05T06:48:15.140Z,3
2023-05-05T06:49:27.000Z,3.1
2023-05-05T06:50:44.000Z,3.2
2023-05-05T06:52:03.729Z,3.4
2023-05-05T06:53:16.000Z,3.4
2023-05-05T06:54:36.121Z,3.3
2023-05-05T06:55:52.317Z,3
2023-05-05T06:57:08.512Z,3.1
2023-05-05T06:58:24.708Z,3.3
2023-05-05T06:59:36.000Z,3.6
2023-05-05T07:00:52.000Z,3.5
2023-05-05T07:02:12.552Z,3.1
2023-05-05T07:03:28.509Z,3.5
2023-05-05T07:04:44.704Z,3.5
2023-05-05T07:06:00.900Z,3.2
2023-05-05T07:07:13.000Z,3.2
2023-05-05T07:08:28.000Z,3.6
2023-05-05T07:09:44.000Z,3.5
2023-05-05T07:11:02.995Z,3.7
2023-05-05T07:12:14.000Z,3.6
2023-05-05T07:13:34.418Z,3.6
2023-05-05T07:14:45.000Z,3.4
2023-05-05T07:16:04.845Z,3.8
2023-05-05T07:17:21.037Z,3.7
2023-05-05T07:18:33.000Z,3.7
2023-05-05T07:19:49.000Z,4
2023-05-05T07:21:00.000Z,3.8
2023-05-05T07:21:09.629Z,3.8
2023-05-05T07:22:25.575Z,3.7
2023-05-05T07:23:41.771Z,3.5
2023-05-05T07:24:54.000Z,4.2
2023-05-05T07:26:10.000Z,3.9
2023-05-05T07:28:46.556Z,4.1
2023-05-05T07:30:02.751Z,4.9
2023-05-05T07:31:19.198Z,4.9
2023-05-05T07:32:30.000Z,4.5
2023-05-05T07:33:50.610Z,4.4
2023-05-05T07:35:03.000Z,4.9
2023-05-05T07:36:19.000Z,4.8
2023-05-05T07:37:35.000Z,5.1
2023-05-05T07:38:41.000Z,5
2023-05-05T07:38:51.000Z,4.7
2023-05-05T07:40:11.336Z,4.8
2023-05-05T07:41:26.814Z,4.6
2023-05-05T07:42:38.000Z,5.1
2023-05-05T07:43:53.000Z,5.4
2023-05-05T07:46:24.000Z,4.6
2023-05-05T07:47:41.000Z,4.5
2023-05-05T07:49:01.040Z,4.8
2023-05-05T07:50:13.000Z,5.2
2023-05-05T07:51:33.434Z,4.4
2023-05-05T07:52:45.000Z,4.8
2023-05-05T07:54:05.577Z,4.7
2023-05-05T07:55:18.000Z,4.8
2023-05-05T07:56:34.000Z,5
2023-05-05T07:57:50.000Z,5.2
2023-05-05T07:59:06.000Z,5
2023-05-05T08:00:23.000Z,5
2023-05-05T08:01:38.000Z,5.2
2023-05-05T08:02:54.000Z,5.2
2023-05-05T08:04:10.000Z,5.1
2023-05-05T08:05:26.000Z,5.2
2023-05-05T08:06:46.803Z,4.9
2023-05-05T08:08:02.993Z,5.1
2023-05-05T08:09:15.000Z,5.3
2023-05-05T08:10:30.000Z,5.5
2023-05-05T08:11:45.000Z,5.2
2023-05-05T08:13:01.000Z,5
2023-05-05T08:14:16.000Z,5.3
2023-05-05T08:15:32.000Z,5.2
2023-05-05T08:16:42.000Z,5.3
2023-05-05T08:16:48.000Z,4.8
2023-05-05T08:18:04.000Z,5.1
2023-05-05T08:19:21.000Z,5.1
2023-05-05T08:20:37.000Z,4.9
2023-05-05T08:21:53.000Z,4.8
2023-05-05T08:24:29.611Z,5.2
2023-05-05T08:25:42.000Z,5
2023-05-05T08:27:01.991Z,4.9
2023-05-05T08:28:14.000Z,5.4
2023-05-05T08:29:34.378Z,5.3
2023-05-05T08:30:45.000Z,5.4
2023-05-05T08:32:05.534Z,5.5
2023-05-05T08:33:21.728Z,5.5
2023-05-05T08:34:34.000Z,5.3
2023-05-05T08:35:50.000Z,5.1
2023-05-05T08:37:06.000Z,5.1
2023-05-05T08:38:23.000Z,4.6
2023-05-05T08:39:41.724Z,4.3
2023-05-05T08:40:56.935Z,4.8
2023-05-05T08:42:09.000Z,4.5
2023-05-05T08:43:29.565Z,4.5
2023-05-05T08:44:42.000Z,4.6
2023-05-05T08:45:58.000Z,4.4
2023-05-05T08:47:17.905Z,5.2
2023-05-05T08:48:30.000Z,5.7
2023-05-05T08:49:46.000Z,5.1
2023-05-05T08:51:03.000Z,5.1
2023-05-05T08:52:22.945Z,4.6
2023-05-05T08:53:35.000Z,5
2023-05-05T08:54:51.000Z,5.3
2023-05-05T08:56:07.000Z,4.8
2023-05-05T08:57:23.000Z,5.1
2023-05-05T08:58:39.000Z,4.9
2023-05-05T08:59:55.000Z,5.1
2023-05-05T09:01:11.000Z,5.8
2023-05-05T09:02:31.249Z,5.3
2023-05-05T09:03:44.000Z,5.2
2023-05-05T09:05:03.877Z,5.3
2023-05-05T09:06:15.000Z,5.4
2023-05-05T09:07:30.000Z,5.2
2023-05-05T09:08:50.261Z,5
2023-05-05T09:10:03.000Z,5.4
2023-05-05T09:11:19.000Z,5.1
2023-05-05T09:12:35.000Z,5.2
2023-05-05T09:13:51.000Z,5.2
2023-05-05T09:15:07.000Z,5.4
2023-05-05T09:16:23.000Z,5.1
2023-05-05T09:17:43.617Z,5.5
2023-05-05T09:18:56.000Z,5
2023-05-05T09:20:12.000Z,5.5
2023-05-05T09:21:32.442Z,5.3
2023-05-05T09:22:44.000Z,5.5
2023-05-05T09:24:03.840Z,5.6
2023-05-05T09:25:16.000Z,5.6
2023-05-05T09:26:32.000Z,5.9
2023-05-05T09:27:52.428Z,5.8
2023-05-05T09:29:04.000Z,4.7
2023-05-05T09:30:21.000Z,5.6
2023-05-05T09:31:37.000Z,4.9
2023-05-05T09:32:41.000Z,4.6
2023-05-05T09:32:55.986Z,4.6
2023-05-05T09:34:11.456Z,4.8
2023-05-05T09:35:22.000Z,4.2
2023-05-05T09:36:38.000Z,4.1
2023-05-05T09:37:57.104Z,3.4
2023-05-05T09:40:27.539Z,4.5
2023-05-05T09:41:39.000Z,5.3
2023-05-05T09:42:58.943Z,5.7
2023-05-05T09:44:11.000Z,5.4
2023-05-05T09:45:27.000Z,4.9
2023-05-05T09:46:43.000Z,5.4
2023-05-05T09:48:03.718Z,5.2
2023-05-05T09:49:16.000Z,5
2023-05-05T09:50:36.106Z,5.5
2023-05-05T09:51:48.000Z,5.2
2023-05-05T09:53:04.000Z,5.2
2023-05-05T09:54:20.000Z,5.5
2023-05-05T09:55:37.000Z,5.4
2023-05-05T09:56:56.825Z,5.2
2023-05-05T09:58:12.036Z,4.7
2023-05-05T09:59:24.000Z,5.2
2023-05-05T10:00:40.000Z,4.8
2023-05-05T10:02:00.872Z,4.6
2023-05-05T10:03:13.000Z,4.5
2023-05-05T10:04:29.000Z,4.6
2023-05-05T10:05:45.000Z,4.8
2023-05-05T10:07:00.000Z,4.3
2023-05-05T10:08:16.000Z,4.7
2023-05-05T10:09:31.000Z,4.2
2023-05-05T10:10:40.000Z,4.5
2023-05-05T10:10:50.060Z,4.1
2023-05-05T10:12:02.000Z,4
2023-05-05T10:13:18.000Z,4.4
2023-05-05T10:14:35.000Z,4.2
2023-05-05T10:15:51.000Z,4.2
2023-05-05T10:18:23.000Z,4.5
2023-05-05T10:19:39.000Z,4.5
2023-05-05T10:20:59.853Z,4.2
2023-05-05T10:22:15.804Z,4.1
2023-05-05T10:23:28.000Z,4.6
2023-05-05T10:24:44.000Z,4.4
2023-05-05T10:26:00.000Z,4
2023-05-05T10:27:19.594Z,3.8
2023-05-05T10:28:35.788Z,4.5
2023-05-05T10:29:48.000Z,4
2023-05-05T10:31:04.000Z,4.7
2023-05-05T10:32:20.000Z,3.9
2023-05-05T10:33:37.000Z,4.3
2023-05-05T10:34:53.000Z,3.5
2023-05-05T10:36:08.000Z,3.4
2023-05-05T10:37:27.435Z,3.5
2023-05-05T10:38:42.408Z,3.6
2023-05-05T10:39:54.000Z,3.9
2023-05-05T10:41:14.057Z,3.1
2023-05-05T10:42:30.005Z,3.8
2023-05-05T10:43:46.450Z,3.6
2023-05-05T10:44:58.000Z,4
2023-05-05T10:46:15.000Z,4.1
2023-05-05T10:47:34.781Z,3.6
2023-05-05T10:48:50.974Z,3.8
2023-05-05T10:50:03.000Z,4
2023-05-05T10:51:23.361Z,3.9
2023-05-05T10:52:39.797Z,4
2023-05-05T10:53:56.002Z,3.6
2023-05-05T10:55:08.000Z,4.2
2023-05-05T10:56:27.153Z,4
2023-05-05T10:57:43.347Z,4
2023-05-05T10:58:56.000Z,4.4
2023-05-05T11:00:15.734Z,4.2
2023-05-05T11:01:28.000Z,4.1
2023-05-05T11:02:44.000Z,4.3
2023-05-05T11:03:50.000Z,3.7
2023-05-05T11:04:04.315Z,3.4
2023-05-05T11:05:19.535Z,3.6
2023-05-05T11:06:31.000Z,3.5
2023-05-05T11:07:50.939Z,3.5
2023-05-05T11:09:06.405Z,3.3
2023-05-05T11:11:37.564Z,3.7
2023-05-05T11:12:53.758Z,3.7
2023-05-05T11:14:06.000Z,3.8
2023-05-05T11:15:22.000Z,3.4
2023-05-05T11:16:38.000Z,2.7
2023-05-05T11:17:55.000Z,3.3
2023-05-05T11:19:11.000Z,3.3
2023-05-05T11:20:27.000Z,3
2023-05-05T11:21:47.361Z,3.6
2023-05-05T11:22:59.000Z,3.3
2023-05-05T11:24:16.000Z,3.2
2023-05-05T11:25:32.000Z,3.9
2023-05-05T11:26:47.000Z,3.6
2023-05-05T11:28:03.000Z,3.9
2023-05-05T11:29:23.293Z,3.6
2023-05-05T11:30:35.000Z,1.3
2023-05-05T11:31:52.000Z,1.1
2023-05-05T11:33:08.000Z,1
2023-05-05T11:34:28.069Z,1.1
2023-05-05T11:35:43.533Z,1
2023-05-05T11:36:58.499Z,0.7
2023-05-05T11:38:11.000Z,0.7
2023-05-05T11:39:26.000Z,0.8
2023-05-05T11:40:41.000Z,0.8
2023-05-05T11:41:57.000Z,0.6
2023-05-05T11:43:17.762Z,0.6
2023-05-05T11:44:24.000Z,0.6
2023-05-05T11:44:30.000Z,0.5
2023-05-05T11:45:46.000Z,0.5
2023-05-05T11:47:02.000Z,0.6
2023-05-05T11:48:22.530Z,0.5
2023-05-05T11:49:38.729Z,1
2023-05-05T11:52:07.000Z,0.6
2023-05-05T11:53:27.303Z,0.6
2023-05-05T11:54:39.000Z,0.8
2023-05-05T11:55:55.000Z,0.4
2023-05-05T11:57:14.658Z,0.5
2023-05-05T11:58:27.000Z,0.5
2023-05-05T11:59:47.044Z,0.6
2023-05-05T12:00:59.000Z,0.5
2023-05-05T12:02:19.683Z,0.5
2023-05-05T12:03:32.000Z,0.4
2023-05-05T12:04:51.818Z,0.6
2023-05-05T12:06:07.282Z,0.8
2023-05-05T12:07:18.000Z,0.6
2023-05-05T12:08:34.000Z,0.5
2023-05-05T12:09:50.000Z,0.7
2023-05-05T12:11:09.119Z,0.5
2023-05-05T12:12:25.323Z,0.5
2023-05-05T12:13:41.260Z,0.6
2023-05-05T12:14:53.000Z,0.6
2023-05-05T12:16:10.000Z,0.5
2023-05-05T12:17:29.841Z,0.5
2023-05-05T12:18:42.000Z,0.6
2023-05-05T12:20:02.472Z,0.7
2023-05-05T12:21:18.677Z,0.7
2023-05-05T12:22:34.872Z,0.8
2023-05-05T12:23:47.000Z,0.6
2023-05-05T12:25:03.000Z,0.7
2023-05-05T12:26:19.000Z,0.6
2023-05-05T12:27:34.000Z,0.7
2023-05-05T12:28:54.599Z,0.7
2023-05-05T12:30:10.793Z,0.8
2023-05-05T12:31:27.239Z,0.6
2023-05-05T12:32:39.000Z,0.7
2023-05-05T12:33:59.623Z,0.7
2023-05-05T12:35:12.000Z,1
2023-05-05T12:36:30.787Z,0.9
2023-05-05T12:37:45.997Z,0.8
2023-05-05T12:38:58.000Z,0.6
2023-05-05T12:40:13.000Z,0.7
2023-05-05T12:41:29.000Z,0.7
2023-05-05T12:42:45.000Z,1
2023-05-05T12:44:01.000Z,0.9
2023-05-05T12:45:17.000Z,1
2023-05-05T12:46:33.000Z,0.8
2023-05-05T12:47:53.849Z,1
2023-05-05T12:49:06.000Z,0.7
2023-05-05T12:50:26.226Z,0.9
2023-05-05T12:51:38.000Z,0.9
2023-05-05T12:52:54.000Z,0.8
2023-05-05T12:54:11.000Z,0.9
2023-05-05T12:55:27.000Z,1
2023-05-05T12:56:43.000Z,0.7
2023-05-05T12:57:58.000Z,0.9
2023-05-05T12:59:14.000Z,0.8
2023-05-05T13:00:31.000Z,0.9
2023-05-05T13:01:50.981Z,0.9
2023-05-05T13:03:03.000Z,0.9
2023-05-05T13:04:19.000Z,0.9
2023-05-05T13:05:39.318Z,0.9
2023-05-05T13:06:55.512Z,0.8
2023-05-05T13:08:10.990Z,1.1
2023-05-05T13:09:22.000Z,1.2
2023-05-05T13:10:38.000Z,0.9
2023-05-05T13:11:54.000Z,0.9
2023-05-05T13:13:14.774Z,1.1
2023-05-05T13:14:57.866Z,1.2
2023-05-05T13:15:43.000Z,0.9
2023-05-05T13:16:59.000Z,1.1
2023-05-05T13:18:19.299Z,1
2023-05-05T13:19:35.741Z,1
2023-05-05T13:20:48.000Z,1.3
2023-05-05T13:22:08.133Z,1.2
2023-05-05T13:23:20.000Z,1
2023-05-05T13:24:40.517Z,1.2
2023-05-05T13:25:51.000Z,1.3
2023-05-05T13:27:11.670Z,1.3
2023-05-05T13:28:24.000Z,1.2
2023-05-05T13:29:40.000Z,1.3
2023-05-05T13:30:56.000Z,1.3
2023-05-05T13:32:16.446Z,1.2
2023-05-05T13:33:32.891Z,1.2
2023-05-05T13:35:31.899Z,1.5
2023-05-05T13:36:03.319Z,1.5
2023-05-05T13:37:33.313Z,1.4
2023-05-05T13:38:33.751Z,1.5
2023-05-05T13:39:45.000Z,1.5
2023-05-05T13:41:00.000Z,1.4
2023-05-05T13:42:16.000Z,1.5
2023-05-05T13:43:36.317Z,1.7
2023-05-05T13:44:48.000Z,1.8
2023-05-05T13:46:05.000Z,1.6
2023-05-05T13:47:45.869Z,1.6
2023-05-05T13:48:41.339Z,1.7
2023-05-05T13:49:52.000Z,2
2023-05-05T13:51:08.000Z,2.1
2023-05-05T13:52:28.694Z,1.9
2023-05-05T13:53:41.000Z,1.6
2023-05-05T13:54:57.000Z,1.9
2023-05-05T13:56:13.000Z,1.8
2023-05-05T13:57:29.000Z,1.9
2023-05-05T13:58:49.663Z,2.1
2023-05-05T14:00:02.000Z,1.8
2023-05-05T14:01:22.294Z,1.9
2023-05-05T14:02:34.000Z,1.9
2023-05-05T14:03:54.681Z,2.2
2023-05-05T14:05:10.633Z,2
2023-05-05T14:06:15.000Z,2.5
2023-05-05T14:06:26.108Z,2.1
2023-05-05T14:07:37.000Z,2.3
2023-05-05T14:08:53.000Z,2.2
2023-05-05T14:10:09.000Z,2.6
2023-05-05T14:11:26.000Z,2.8
2023-05-05T14:14:02.287Z,2.4
2023-05-05T14:15:18.468Z,1.9
2023-05-05T14:16:34.420Z,1.9
2023-05-05T14:17:47.000Z,2
2023-05-05T14:19:03.000Z,2.1
2023-05-05T14:20:19.000Z,2.1
2023-05-05T14:21:39.196Z,1.8
2023-05-05T14:22:51.000Z,1.9
2023-05-05T14:24:07.000Z,1.8
2023-05-05T14:25:17.000Z,2.5
2023-05-05T14:25:23.000Z,2
2023-05-05T14:26:39.000Z,2
2023-05-05T14:27:55.000Z,1.7
2023-05-05T14:29:15.375Z,2.1
2023-05-05T14:30:28.000Z,2.1
2023-05-05T14:32:59.000Z,2
2023-05-05T14:34:14.000Z,2
2023-05-05T14:35:29.000Z,2.1
2023-05-05T14:36:48.868Z,2
2023-05-05T14:38:00.000Z,1.9
2023-05-05T14:39:15.000Z,1.7
2023-05-05T14:40:31.000Z,1.8
2023-05-05T14:41:51.682Z,1.7
2023-05-05T14:43:07.636Z,1.6
2023-05-05T14:44:24.080Z,1.6
2023-05-05T14:45:36.000Z,2
2023-05-05T14:46:52.000Z,1.5
2023-05-05T14:48:12.665Z,1.4
2023-05-05T14:49:25.000Z,1.7
2023-05-05T14:50:41.000Z,1.7
2023-05-05T14:52:00.994Z,1.7
2023-05-05T14:53:13.000Z,1.5
2023-05-05T14:54:29.000Z,1.7
2023-05-05T14:55:45.000Z,1.4
2023-05-05T14:57:05.032Z,1.4
2023-05-05T14:58:17.000Z,1.7
2023-05-05T14:59:25.000Z,1.7
2023-05-05T14:59:33.000Z,1.6
2023-05-05T15:00:49.000Z,2.1
2023-05-05T15:02:05.000Z,1.7
2023-05-05T15:03:25.996Z,1.9
2023-05-05T15:04:37.000Z,1.8
2023-05-05T15:07:11.406Z,1.6
2023-05-05T15:08:23.000Z,1.4
2023-05-05T15:09:39.000Z,1.6
2023-05-05T15:10:59.266Z,1.7
2023-05-05T15:12:15.197Z,1.7
2023-05-05T15:13:27.000Z,2
2023-05-05T15:14:37.000Z,1.7
2023-05-05T15:14:44.000Z,2.1
2023-05-05T15:16:00.000Z,2
2023-05-05T15:17:16.000Z,1.9
2023-05-05T15:18:36.409Z,1.7
2023-05-05T15:19:52.606Z,1.7
2023-05-05T15:22:21.000Z,2.1
2023-05-05T15:23:37.000Z,2
2023-05-05T15:24:56.398Z,2
2023-05-05T15:26:08.761Z,1.9
2023-05-05T15:27:24.000Z,1.9
2023-05-05T15:28:41.000Z,2
2023-05-05T15:30:00.925Z,2.1
2023-05-05T15:31:13.000Z,1.9
2023-05-05T15:32:29.000Z,1.8
2023-05-05T15:33:44.000Z,1.7
2023-05-05T15:35:00.000Z,1.8
2023-05-05T15:36:20.197Z,1.8
2023-05-05T15:37:36.367Z,1.8
2023-05-05T15:38:52.575Z,1.8
2023-05-05T15:40:04.000Z,2.1
2023-05-05T15:41:21.000Z,1.7
2023-05-05T15:42:37.000Z,2
2023-05-05T15:43:53.000Z,2.1
2023-05-05T15:45:09.000Z,2.3
2023-05-05T15:46:25.000Z,2.4
2023-05-05T15:47:35.000Z,1.1
2023-05-05T15:47:42.000Z,2.3
2023-05-05T15:48:58.000Z,2.8
2023-05-05T15:50:14.000Z,2.6
2023-05-05T15:51:29.000Z,1.6
2023-05-05T15:52:49.470Z,1.2
2023-05-05T15:55:18.000Z,1.3
2023-05-05T15:56:34.000Z,1.1
2023-05-05T15:57:54.490Z,1.2
2023-05-05T15:59:10.680Z,1.1
2023-05-05T16:00:25.659Z,1.3
2023-05-05T16:01:37.000Z,1.2
2023-05-05T16:02:57.315Z,1.2
2023-05-05T16:04:13.522Z,1.3
2023-05-05T16:05:25.000Z,1.5
2023-05-05T16:06:42.000Z,1.5
2023-05-05T16:08:02.081Z,1.7
2023-05-05T16:09:18.290Z,1.8
2023-05-05T16:10:34.477Z,1.6
2023-05-05T16:11:46.000Z,1.4
2023-05-05T16:13:03.000Z,1.8
2023-05-05T16:14:19.000Z,1.9
2023-05-05T16:15:39.243Z,1.8
2023-05-05T16:16:51.000Z,2
2023-05-05T16:18:06.000Z,1.9
2023-05-05T16:19:22.000Z,1.8
2023-05-05T16:20:39.000Z,1.7
2023-05-05T16:21:55.000Z,1.5
2023-05-05T16:23:11.000Z,1.8
2023-05-05T16:24:27.000Z,1.9
2023-05-05T16:25:43.000Z,1.6
2023-05-05T16:26:59.000Z,1.8
2023-05-05T16:28:14.000Z,1.8
2023-05-05T16:29:33.216Z,1.8
2023-05-05T16:30:48.426Z,2.1
2023-05-05T16:32:03.898Z,2.1
2023-05-05T16:33:15.000Z,2
2023-05-05T16:34:35.050Z,1.9
2023-05-05T16:35:51.491Z,1.8
2023-05-05T16:36:57.000Z,2
2023-05-05T16:37:03.000Z,1.6
2023-05-05T16:38:23.878Z,1.8
2023-05-05T16:39:40.079Z,1.9
2023-05-05T16:40:46.000Z,1.9
2023-05-05T16:40:52.000Z,1.7
2023-05-05T16:42:02.000Z,2.2
2023-05-05T16:42:08.000Z,2
2023-05-05T16:44:40.000Z,1.5
2023-05-05T16:46:01.039Z,1.6
2023-05-05T16:49:44.000Z,1.9
2023-05-05T16:51:00.000Z,1.9
2023-05-05T16:52:21.019Z,2
2023-05-05T16:53:37.215Z,2
2023-05-05T16:54:49.000Z,2.3
2023-05-05T16:56:09.358Z,2
2023-05-05T16:57:21.000Z,2.4
2023-05-05T16:58:37.000Z,2.6
2023-05-05T16:59:52.000Z,2.4
2023-05-05T17:01:11.454Z,2.5
2023-05-05T17:02:22.000Z,3.1
2023-05-05T17:03:38.000Z,3.1
2023-05-05T17:04:55.000Z,2.9
2023-05-05T17:06:15.247Z,2.7
2023-05-05T17:07:27.000Z,3.1
2023-05-05T17:08:47.381Z,3.4
2023-05-05T17:09:59.000Z,3.3
2023-05-05T17:11:20.025Z,3.4
2023-05-05T17:12:32.000Z,3.3
2023-05-05T17:13:48.000Z,3.5
2023-05-05T17:15:04.000Z,3.4
2023-05-05T17:16:24.542Z,3.5
2023-05-05T17:17:40.978Z,3.7
2023-05-05T17:18:56.192Z,3.2
2023-05-05T17:20:08.000Z,3
2023-05-05T17:21:28.334Z,3.2
2023-05-05T17:22:40.000Z,3
2023-05-05T17:24:00.721Z,3.3
2023-05-05T17:25:17.167Z,2.5
2023-05-05T17:26:29.000Z,2.7
2023-05-05T17:27:44.000Z,2.4
2023-05-05T17:29:03.788Z,2.6
2023-05-05T17:30:15.000Z,2.2
2023-05-05T17:31:34.218Z,2.4
2023-05-05T17:32:50.415Z,2.3